sensor_id;sensor_type;location;lat;lon;timestamp;pressure;altitude;pressure_sealevel;temperature;humidity
71774;BME280;59607;52.130;5.430;2024-01-15T00:01:03;100404.59;;;1.68;100.00
71774;BME280;59607;52.130;5.430;2024-01-15T00:03:33;100410.13;;;1.63;100.00
71774;BME280;59607;52.130;5.430;2024-01-15T00:06:04;100401.88;;;1.58;100.00
71774;BME280;59607;52.130;5.430;2024-01-15T00:08:30;100396.22;;;1.53;100.00
71774;BME280;59607;52.130;5.430;2024-01-15T00:11:04;100394.81;;;1.48;100.00
71774;BME280;59607;52.130;5.430;2024-01-15T00:13:30;100394.09;;;1.46;100.00
71774;BME280;59607;52.130;5.430;2024-01-15T00:16:05;100392.81;;;1.41;100.00
71774;BME280;59607;52.130;5.430;2024-01-15T00:18:32;100381.03;;;1.37;100.00
71774;BME280;59607;52.130;5.430;2024-01-15T00:20:58;100389.97;;;1.32;100.00
71774;BME280;59607;52.130;5.430;2024-01-15T00:23:25;100392.66;;;1.31;100.00
71774;BME280;59607;52.130;5.430;2024-01-15T00:25:51;100378.19;;;1.28;100.00
71774;BME280;59607;52.130;5.430;2024-01-15T00:28:18;100374.09;;;1.26;100.00
71774;BME280;59607;52.130;5.430;2024-01-15T00:30:44;100376.91;;;1.22;100.00
71774;BME280;59607;52.130;5.430;2024-01-15T00:33:15;100371.94;;;1.19;100.00
71774;BME280;59607;52.130;5.430;2024-01-15T00:35:41;100375.47;;;1.18;100.00
71774;BME280;59607;52.130;5.430;2024-01-15T00:38:14;100368.66;;;1.17;100.00
71774;BME280;59607;52.130;5.430;2024-01-15T00:40:43;100365.34;;;1.15;100.00
71774;BME280;59607;52.130;5.430;2024-01-15T00:43:12;100362.19;;;1.12;100.00
71774;BME280;59607;52.130;5.430;2024-01-15T00:45:42;100362.41;;;1.08;100.00
71774;BME280;59607;52.130;5.430;2024-01-15T00:48:09;100348.78;;;1.06;100.00
71774;BME280;59607;52.130;5.430;2024-01-15T00:50:41;100343.84;;;1.03;100.00
71774;BME280;59607;52.130;5.430;2024-01-15T00:53:10;100338.78;;;1.02;100.00
71774;BME280;59607;52.130;5.430;2024-01-15T00:55:37;100344.88;;;1.01;100.00
71774;BME280;59607;52.130;5.430;2024-01-15T00:58:06;100343.25;;;1.00;100.00
71774;BME280;59607;52.130;5.430;2024-01-15T01:00:35;100346.88;;;0.97;100.00
71774;BME280;59607;52.130;5.430;2024-01-15T01:03:02;100349.47;;;0.97;100.00
71774;BME280;59607;52.130;5.430;2024-01-15T01:05:36;100345.31;;;0.94;100.00
71774;BME280;59607;52.130;5.430;2024-01-15T01:08:05;100344.63;;;0.92;100.00
71774;BME280;59607;52.130;5.430;2024-01-15T01:10:47;100341.44;;;0.89;100.00
71774;BME280;59607;52.130;5.430;2024-01-15T01:13:32;100335.44;;;0.88;100.00
71774;BME280;59607;52.130;5.430;2024-01-15T01:16:02;100335.56;;;0.86;100.00
71774;BME280;59607;52.130;5.430;2024-01-15T01:18:35;100331.34;;;0.85;100.00
71774;BME280;59607;52.130;5.430;2024-01-15T01:21:04;100326.91;;;0.88;100.00
71774;BME280;59607;52.130;5.430;2024-01-15T01:23:31;100318.44;;;0.85;100.00
71774;BME280;59607;52.130;5.430;2024-01-15T01:25:59;100332.16;;;0.86;100.00
71774;BME280;59607;52.130;5.430;2024-01-15T01:28:29;100326.06;;;0.87;100.00
71774;BME280;59607;52.130;5.430;2024-01-15T01:30:59;100328.53;;;0.89;100.00
71774;BME280;59607;52.130;5.430;2024-01-15T01:33:39;100331.13;;;0.89;100.00
71774;BME280;59607;52.130;5.430;2024-01-15T01:36:12;100336.19;;;0.90;100.00
71774;BME280;59607;52.130;5.430;2024-01-15T01:38:39;100339.38;;;0.94;100.00
71774;BME280;59607;52.130;5.430;2024-01-15T01:41:07;100334.19;;;0.94;100.00
71774;BME280;59607;52.130;5.430;2024-01-15T01:43:36;100340.06;;;0.96;100.00
71774;BME280;59607;52.130;5.430;2024-01-15T01:46:02;100336.44;;;0.98;100.00
71774;BME280;59607;52.130;5.430;2024-01-15T01:48:30;100330.22;;;1.01;100.00
71774;BME280;59607;52.130;5.430;2024-01-15T01:51:02;100331.78;;;1.04;100.00
71774;BME280;59607;52.130;5.430;2024-01-15T01:53:33;100331.66;;;1.05;100.00
71774;BME280;59607;52.130;5.430;2024-01-15T01:56:09;100327.19;;;1.07;100.00
71774;BME280;59607;52.130;5.430;2024-01-15T01:58:46;100323.78;;;1.07;100.00
71774;BME280;59607;52.130;5.430;2024-01-15T02:01:15;100327.91;;;1.09;100.00
71774;BME280;59607;52.130;5.430;2024-01-15T02:03:48;100324.84;;;1.16;100.00
71774;BME280;59607;52.130;5.430;2024-01-15T02:06:15;100328.28;;;1.28;100.00
71774;BME280;59607;52.130;5.430;2024-01-15T02:08:43;100331.38;;;1.44;100.00
71774;BME280;59607;52.130;5.430;2024-01-15T02:11:12;100327.63;;;1.60;100.00
71774;BME280;59607;52.130;5.430;2024-01-15T02:13:39;100352.19;;;1.77;100.00
71774;BME280;59607;52.130;5.430;2024-01-15T02:16:06;100366.66;;;1.91;100.00
71774;BME280;59607;52.130;5.430;2024-01-15T02:18:44;100357.84;;;1.94;100.00
71774;BME280;59607;52.130;5.430;2024-01-15T02:21:13;100342.69;;;1.89;100.00
71774;BME280;59607;52.130;5.430;2024-01-15T02:23:44;100347.00;;;1.89;100.00
71774;BME280;59607;52.130;5.430;2024-01-15T02:26:14;100338.78;;;1.83;100.00
71774;BME280;59607;52.130;5.430;2024-01-15T02:28:45;100329.75;;;1.78;100.00
71774;BME280;59607;52.130;5.430;2024-01-15T02:31:12;100330.94;;;1.74;100.00
71774;BME280;59607;52.130;5.430;2024-01-15T02:33:52;100329.28;;;1.72;100.00
71774;BME280;59607;52.130;5.430;2024-01-15T02:36:20;100337.84;;;1.73;100.00
71774;BME280;59607;52.130;5.430;2024-01-15T02:38:48;100333.84;;;1.69;100.00
71774;BME280;59607;52.130;5.430;2024-01-15T02:41:14;100331.50;;;1.66;100.00
71774;BME280;59607;52.130;5.430;2024-01-15T02:43:47;100333.28;;;1.65;100.00
71774;BME280;59607;52.130;5.430;2024-01-15T02:46:18;100318.34;;;1.69;100.00
71774;BME280;59607;52.130;5.430;2024-01-15T02:48:44;100325.06;;;1.71;100.00
71774;BME280;59607;52.130;5.430;2024-01-15T02:51:19;100319.75;;;1.73;100.00
71774;BME280;59607;52.130;5.430;2024-01-15T02:53:45;100320.34;;;1.77;100.00
71774;BME280;59607;52.130;5.430;2024-01-15T02:56:18;100319.41;;;1.78;100.00
71774;BME280;59607;52.130;5.430;2024-01-15T02:58:45;100321.75;;;1.81;100.00
71774;BME280;59607;52.130;5.430;2024-01-15T03:01:12;100320.13;;;1.80;100.00
71774;BME280;59607;52.130;5.430;2024-01-15T03:03:46;100322.00;;;1.78;100.00
71774;BME280;59607;52.130;5.430;2024-01-15T03:06:13;100317.78;;;1.77;100.00
71774;BME280;59607;52.130;5.430;2024-01-15T03:08:51;100314.34;;;1.76;100.00
71774;BME280;59607;52.130;5.430;2024-01-15T03:11:20;100316.69;;;1.79;100.00
71774;BME280;59607;52.130;5.430;2024-01-15T03:13:50;100315.75;;;1.80;100.00
71774;BME280;59607;52.130;5.430;2024-01-15T03:16:17;100314.81;;;1.81;100.00
71774;BME280;59607;52.130;5.430;2024-01-15T03:18:52;100309.19;;;1.76;100.00
71774;BME280;59607;52.130;5.430;2024-01-15T03:21:18;100318.94;;;1.72;100.00
71774;BME280;59607;52.130;5.430;2024-01-15T03:23:47;100304.72;;;1.67;100.00
71774;BME280;59607;52.130;5.430;2024-01-15T03:26:16;100305.19;;;1.60;100.00
71774;BME280;59607;52.130;5.430;2024-01-15T03:28:42;100320.00;;;1.58;100.00
71774;BME280;59607;52.130;5.430;2024-01-15T03:31:09;100311.41;;;1.58;100.00
71774;BME280;59607;52.130;5.430;2024-01-15T03:33:56;100315.97;;;1.54;100.00
71774;BME280;59607;52.130;5.430;2024-01-15T03:36:25;100334.06;;;1.54;100.00
71774;BME280;59607;52.130;5.430;2024-01-15T03:38:53;100323.84;;;1.64;100.00
71774;BME280;59607;52.130;5.430;2024-01-15T03:41:24;100337.50;;;1.66;100.00
71774;BME280;59607;52.130;5.430;2024-01-15T03:43:51;100340.56;;;1.71;100.00
71774;BME280;59607;52.130;5.430;2024-01-15T03:46:21;100340.31;;;1.75;100.00
71774;BME280;59607;52.130;5.430;2024-01-15T03:48:51;100332.81;;;1.83;100.00
71774;BME280;59607;52.130;5.430;2024-01-15T03:51:19;100314.94;;;1.91;100.00
71774;BME280;59607;52.130;5.430;2024-01-15T03:53:52;100308.81;;;1.92;100.00
71774;BME280;59607;52.130;5.430;2024-01-15T03:56:18;100308.56;;;1.95;100.00
71774;BME280;59607;52.130;5.430;2024-01-15T03:58:48;100294.25;;;1.91;100.00
71774;BME280;59607;52.130;5.430;2024-01-15T04:01:18;100287.44;;;1.79;100.00
71774;BME280;59607;52.130;5.430;2024-01-15T04:03:44;100287.66;;;1.64;100.00
71774;BME280;59607;52.130;5.430;2024-01-15T04:06:20;100281.94;;;1.49;100.00
71774;BME280;59607;52.130;5.430;2024-01-15T04:08:47;100280.13;;;1.38;100.00
71774;BME280;59607;52.130;5.430;2024-01-15T04:11:14;100274.53;;;1.33;100.00
71774;BME280;59607;52.130;5.430;2024-01-15T04:13:43;100278.50;;;1.26;100.00
71774;BME280;59607;52.130;5.430;2024-01-15T04:16:09;100272.84;;;1.20;100.00
71774;BME280;59607;52.130;5.430;2024-01-15T04:18:36;100271.44;;;1.16;100.00
71774;BME280;59607;52.130;5.430;2024-01-15T04:21:09;100274.13;;;1.15;100.00
71774;BME280;59607;52.130;5.430;2024-01-15T04:23:36;100269.22;;;1.12;100.00
71774;BME280;59607;52.130;5.430;2024-01-15T04:26:12;100270.13;;;1.10;100.00
71774;BME280;59607;52.130;5.430;2024-01-15T04:28:39;100274.59;;;1.08;100.00
71774;BME280;59607;52.130;5.430;2024-01-15T04:31:08;100266.13;;;1.06;100.00
71774;BME280;59607;52.130;5.430;2024-01-15T04:33:35;100267.19;;;1.04;100.00
71774;BME280;59607;52.130;5.430;2024-01-15T04:36:04;100259.56;;;1.02;100.00
71774;BME280;59607;52.130;5.430;2024-01-15T04:38:51;100256.03;;;1.03;100.00
71774;BME280;59607;52.130;5.430;2024-01-15T04:41:24;100262.03;;;1.04;100.00
71774;BME280;59607;52.130;5.430;2024-01-15T04:43:56;100250.16;;;1.01;100.00
71774;BME280;59607;52.130;5.430;2024-01-15T04:46:27;100252.75;;;1.01;100.00
71774;BME280;59607;52.130;5.430;2024-01-15T04:48:54;100237.25;;;1.01;100.00
71774;BME280;59607;52.130;5.430;2024-01-15T04:51:21;100250.88;;;1.03;100.00
71774;BME280;59607;52.130;5.430;2024-01-15T04:53:52;100247.22;;;1.06;100.00
71774;BME280;59607;52.130;5.430;2024-01-15T04:56:18;100242.53;;;1.11;100.00
71774;BME280;59607;52.130;5.430;2024-01-15T04:58:50;100246.44;;;1.17;100.00
71774;BME280;59607;52.130;5.430;2024-01-15T05:01:17;100252.06;;;1.22;100.00
71774;BME280;59607;52.130;5.430;2024-01-15T05:03:49;100254.28;;;1.27;100.00
71774;BME280;59607;52.130;5.430;2024-01-15T05:06:23;100246.22;;;1.31;100.00
71774;BME280;59607;52.130;5.430;2024-01-15T05:08:59;100245.97;;;1.34;100.00
71774;BME280;59607;52.130;5.430;2024-01-15T05:11:25;100247.50;;;1.37;100.00
71774;BME280;59607;52.130;5.430;2024-01-15T05:13:59;100248.31;;;1.38;100.00
71774;BME280;59607;52.130;5.430;2024-01-15T05:16:26;100240.69;;;1.36;100.00
71774;BME280;59607;52.130;5.430;2024-01-15T05:19:03;100233.06;;;1.34;100.00
71774;BME280;59607;52.130;5.430;2024-01-15T05:21:29;100228.56;;;1.37;100.00
71774;BME280;59607;52.130;5.430;2024-01-15T05:24:07;100223.16;;;1.40;100.00
71774;BME280;59607;52.130;5.430;2024-01-15T05:26:34;100228.22;;;1.41;100.00
71774;BME280;59607;52.130;5.430;2024-01-15T05:29:14;100226.34;;;1.43;100.00
71774;BME280;59607;52.130;5.430;2024-01-15T05:31:41;100226.22;;;1.45;100.00
71774;BME280;59607;52.130;5.430;2024-01-15T05:34:10;100228.00;;;1.44;100.00
71774;BME280;59607;52.130;5.430;2024-01-15T05:36:37;100238.91;;;1.48;100.00
71774;BME280;59607;52.130;5.430;2024-01-15T05:39:04;100228.47;;;1.50;100.00
71774;BME280;59607;52.130;5.430;2024-01-15T05:41:36;100236.69;;;1.55;100.00
71774;BME280;59607;52.130;5.430;2024-01-15T05:44:02;100243.38;;;1.57;100.00
71774;BME280;59607;52.130;5.430;2024-01-15T05:46:32;100237.03;;;1.62;100.00
71774;BME280;59607;52.130;5.430;2024-01-15T05:48:58;100239.63;;;1.62;100.00
71774;BME280;59607;52.130;5.430;2024-01-15T05:51:25;100230.78;;;1.64;100.00
71774;BME280;59607;52.130;5.430;2024-01-15T05:53:58;100241.84;;;1.66;100.00
71774;BME280;59607;52.130;5.430;2024-01-15T05:56:27;100249.94;;;1.73;100.00
71774;BME280;59607;52.130;5.430;2024-01-15T05:58:53;100247.84;;;1.78;100.00
71774;BME280;59607;52.130;5.430;2024-01-15T06:01:26;100248.28;;;1.83;100.00
71774;BME280;59607;52.130;5.430;2024-01-15T06:03:53;100244.53;;;1.88;100.00
71774;BME280;59607;52.130;5.430;2024-01-15T06:06:23;100259.09;;;1.89;100.00
71774;BME280;59607;52.130;5.430;2024-01-15T06:08:50;100254.38;;;1.94;100.00
71774;BME280;59607;52.130;5.430;2024-01-15T06:11:16;100261.31;;;1.93;100.00
71774;BME280;59607;52.130;5.430;2024-01-15T06:13:45;100265.09;;;1.89;100.00
71774;BME280;59607;52.130;5.430;2024-01-15T06:16:19;100239.00;;;1.81;100.00
71774;BME280;59607;52.130;5.430;2024-01-15T06:18:46;100242.53;;;1.80;100.00
71774;BME280;59607;52.130;5.430;2024-01-15T06:21:18;100239.84;;;1.81;100.00
71774;BME280;59607;52.130;5.430;2024-01-15T06:23:45;100235.81;;;1.77;100.00
71774;BME280;59607;52.130;5.430;2024-01-15T06:26:12;100232.22;;;1.68;100.00
71774;BME280;59607;52.130;5.430;2024-01-15T06:28:38;100231.63;;;1.65;100.00
71774;BME280;59607;52.130;5.430;2024-01-15T06:31:08;100227.66;;;1.60;100.00
71774;BME280;59607;52.130;5.430;2024-01-15T06:33:34;100228.56;;;1.59;100.00
71774;BME280;59607;52.130;5.430;2024-01-15T06:36:06;100234.81;;;1.57;100.00
71774;BME280;59607;52.130;5.430;2024-01-15T06:38:33;100235.84;;;1.54;100.00
71774;BME280;59607;52.130;5.430;2024-01-15T06:41:00;100232.47;;;1.54;100.00
71774;BME280;59607;52.130;5.430;2024-01-15T06:43:32;100230.25;;;1.49;100.00
71774;BME280;59607;52.130;5.430;2024-01-15T06:45:59;100228.56;;;1.48;100.00
71774;BME280;59607;52.130;5.430;2024-01-15T06:48:33;100224.00;;;1.40;100.00
71774;BME280;59607;52.130;5.430;2024-01-15T06:51:00;100227.91;;;1.34;100.00
71774;BME280;59607;52.130;5.430;2024-01-15T06:53:26;100231.75;;;1.29;100.00
71774;BME280;59607;52.130;5.430;2024-01-15T06:56:00;100222.72;;;1.23;100.00
71774;BME280;59607;52.130;5.430;2024-01-15T06:58:26;100218.72;;;1.19;100.00
71774;BME280;59607;52.130;5.430;2024-01-15T07:00:55;100216.97;;;1.19;100.00
71774;BME280;59607;52.130;5.430;2024-01-15T07:03:22;100212.75;;;1.18;100.00
71774;BME280;59607;52.130;5.430;2024-01-15T07:05:49;100211.56;;;1.22;100.00
71774;BME280;59607;52.130;5.430;2024-01-15T07:08:19;100207.09;;;1.25;100.00
71774;BME280;59607;52.130;5.430;2024-01-15T07:10:48;100204.28;;;1.28;100.00
71774;BME280;59607;52.130;5.430;2024-01-15T07:13:15;100209.94;;;1.33;100.00
71774;BME280;59607;52.130;5.430;2024-01-15T07:15:43;100210.59;;;1.35;100.00
71774;BME280;59607;52.130;5.430;2024-01-15T07:18:10;100222.50;;;1.38;100.00
71774;BME280;59607;52.130;5.430;2024-01-15T07:20:37;100249.97;;;1.39;100.00
71774;BME280;59607;52.130;5.430;2024-01-15T07:23:07;100268.16;;;1.37;100.00
71774;BME280;59607;52.130;5.430;2024-01-15T07:25:34;100268.28;;;1.35;100.00
71774;BME280;59607;52.130;5.430;2024-01-15T07:28:01;100262.41;;;1.45;100.00
71774;BME280;59607;52.130;5.430;2024-01-15T07:30:33;100235.84;;;1.43;100.00
71774;BME280;59607;52.130;5.430;2024-01-15T07:33:04;100233.50;;;1.40;100.00
71774;BME280;59607;52.130;5.430;2024-01-15T07:35:34;100232.81;;;1.38;100.00
71774;BME280;59607;52.130;5.430;2024-01-15T07:38:04;100232.22;;;1.34;100.00
71774;BME280;59607;52.130;5.430;2024-01-15T07:40:31;100238.47;;;1.31;100.00
71774;BME280;59607;52.130;5.430;2024-01-15T07:43:11;100224.84;;;1.29;100.00
71774;BME280;59607;52.130;5.430;2024-01-15T07:45:40;100224.59;;;1.32;100.00
71774;BME280;59607;52.130;5.430;2024-01-15T07:48:11;100233.75;;;1.37;100.00
71774;BME280;59607;52.130;5.430;2024-01-15T07:50:42;100243.97;;;1.38;100.00
71774;BME280;59607;52.130;5.430;2024-01-15T07:53:12;100253.25;;;1.41;100.00
71774;BME280;59607;52.130;5.430;2024-01-15T07:55:38;100251.16;;;1.46;100.00
71774;BME280;59607;52.130;5.430;2024-01-15T07:58:10;100244.19;;;1.46;100.00
71774;BME280;59607;52.130;5.430;2024-01-15T08:00:42;100252.19;;;1.43;100.00
71774;BME280;59607;52.130;5.430;2024-01-15T08:03:12;100244.31;;;1.45;100.00
71774;BME280;59607;52.130;5.430;2024-01-15T08:05:42;100245.16;;;1.45;100.00
71774;BME280;59607;52.130;5.430;2024-01-15T08:08:08;100242.56;;;1.45;100.00
71774;BME280;59607;52.130;5.430;2024-01-15T08:10:41;100232.34;;;1.44;100.00
71774;BME280;59607;52.130;5.430;2024-01-15T08:13:08;100227.66;;;1.38;100.00
71774;BME280;59607;52.130;5.430;2024-01-15T08:15:36;100215.66;;;1.37;100.00
71774;BME280;59607;52.130;5.430;2024-01-15T08:18:06;100224.59;;;1.32;100.00
71774;BME280;59607;52.130;5.430;2024-01-15T08:20:32;100224.72;;;1.31;100.00
71774;BME280;59607;52.130;5.430;2024-01-15T08:22:59;100224.00;;;1.29;100.00
71774;BME280;59607;52.130;5.430;2024-01-15T08:25:30;100244.66;;;1.29;100.00
71774;BME280;59607;52.130;5.430;2024-01-15T08:27:57;100238.00;;;1.38;100.00
71774;BME280;59607;52.130;5.430;2024-01-15T08:30:26;100238.44;;;1.43;100.00
71774;BME280;59607;52.130;5.430;2024-01-15T08:32:58;100256.53;;;1.43;100.00
71774;BME280;59607;52.130;5.430;2024-01-15T08:35:37;100247.75;;;1.45;100.00
71774;BME280;59607;52.130;5.430;2024-01-15T08:38:03;100251.47;;;1.41;100.00
71774;BME280;59607;52.130;5.430;2024-01-15T08:40:32;100238.56;;;1.41;100.00
71774;BME280;59607;52.130;5.430;2024-01-15T08:43:04;100236.31;;;1.48;100.00
71774;BME280;59607;52.130;5.430;2024-01-15T08:45:37;100230.00;;;1.52;100.00
71774;BME280;59607;52.130;5.430;2024-01-15T08:48:11;100233.97;;;1.56;100.00
71774;BME280;59607;52.130;5.430;2024-01-15T08:50:54;100235.16;;;1.64;100.00
71774;BME280;59607;52.130;5.430;2024-01-15T08:53:22;100231.50;;;1.66;100.00
71774;BME280;59607;52.130;5.430;2024-01-15T08:55:51;100238.31;;;1.67;100.00
71774;BME280;59607;52.130;5.430;2024-01-15T08:58:17;100240.66;;;1.70;100.00
71774;BME280;59607;52.130;5.430;2024-01-15T09:00:59;100248.53;;;1.69;100.00
71774;BME280;59607;52.130;5.430;2024-01-15T09:03:33;100241.13;;;1.76;100.00
71774;BME280;59607;52.130;5.430;2024-01-15T09:06:00;100244.41;;;1.78;100.00
71774;BME280;59607;52.130;5.430;2024-01-15T09:08:30;100242.44;;;1.81;100.00
71774;BME280;59607;52.130;5.430;2024-01-15T09:10:56;100254.97;;;1.97;100.00
71774;BME280;59607;52.130;5.430;2024-01-15T09:13:23;100268.81;;;2.08;100.00
71774;BME280;59607;52.130;5.430;2024-01-15T09:15:50;100269.16;;;2.03;100.00
71774;BME280;59607;52.130;5.430;2024-01-15T09:18:20;100263.09;;;1.93;100.00
71774;BME280;59607;52.130;5.430;2024-01-15T09:20:47;100245.34;;;1.88;100.00
71774;BME280;59607;52.130;5.430;2024-01-15T09:23:19;100241.22;;;1.85;100.00
71774;BME280;59607;52.130;5.430;2024-01-15T09:25:48;100242.44;;;1.81;100.00
71774;BME280;59607;52.130;5.430;2024-01-15T09:28:16;100243.34;;;1.80;100.00
71774;BME280;59607;52.130;5.430;2024-01-15T09:30:48;100244.53;;;1.76;100.00
71774;BME280;59607;52.130;5.430;2024-01-15T09:33:14;100249.25;;;1.71;100.00
71774;BME280;59607;52.130;5.430;2024-01-15T09:35:44;100249.47;;;1.68;100.00
71774;BME280;59607;52.130;5.430;2024-01-15T09:38:12;100238.56;;;1.64;100.00
71774;BME280;59607;52.130;5.430;2024-01-15T09:40:38;100241.72;;;1.68;100.00
71774;BME280;59607;52.130;5.430;2024-01-15T09:43:11;100237.72;;;1.75;100.00
71774;BME280;59607;52.130;5.430;2024-01-15T09:48:38;100245.56;;;1.96;100.00
71774;BME280;59607;52.130;5.430;2024-01-15T09:51:06;100239.22;;;1.89;100.00
71774;BME280;59607;52.130;5.430;2024-01-15T09:53:36;100240.63;;;1.82;100.00
71774;BME280;59607;52.130;5.430;2024-01-15T09:56:06;100239.13;;;1.79;100.00
71774;BME280;59607;52.130;5.430;2024-01-15T09:58:33;100242.31;;;1.83;100.00
71774;BME280;59607;52.130;5.430;2024-01-15T10:01:06;100245.94;;;1.80;100.00
71774;BME280;59607;52.130;5.430;2024-01-15T10:03:36;100245.81;;;1.82;100.00
71774;BME280;59607;52.130;5.430;2024-01-15T10:06:11;100249.34;;;1.92;100.00
71774;BME280;59607;52.130;5.430;2024-01-15T10:08:39;100256.47;;;2.12;100.00
71774;BME280;59607;52.130;5.430;2024-01-15T10:11:11;100262.06;;;2.61;100.00
71774;BME280;59607;52.130;5.430;2024-01-15T10:13:38;100266.31;;;2.83;100.00
71774;BME280;59607;52.130;5.430;2024-01-15T10:16:19;100249.41;;;2.46;100.00
71774;BME280;59607;52.130;5.430;2024-01-15T10:18:46;100241.09;;;2.31;100.00
71774;BME280;59607;52.130;5.430;2024-01-15T10:21:13;100239.44;;;2.30;100.00
71774;BME280;59607;52.130;5.430;2024-01-15T10:23:44;100255.78;;;2.42;100.00
71774;BME280;59607;52.130;5.430;2024-01-15T10:26:10;100255.94;;;2.83;100.00
71774;BME280;59607;52.130;5.430;2024-01-15T10:28:41;100256.50;;;2.66;100.00
71774;BME280;59607;52.130;5.430;2024-01-15T10:31:09;100270.72;;;2.39;100.00
71774;BME280;59607;52.130;5.430;2024-01-15T10:33:39;100261.00;;;2.19;100.00
71774;BME280;59607;52.130;5.430;2024-01-15T10:36:09;100251.31;;;2.00;100.00
71774;BME280;59607;52.130;5.430;2024-01-15T10:38:40;100256.38;;;1.90;100.00
71774;BME280;59607;52.130;5.430;2024-01-15T10:41:09;100262.53;;;1.78;100.00
71774;BME280;59607;52.130;5.430;2024-01-15T10:43:35;100246.41;;;1.74;100.00
71774;BME280;59607;52.130;5.430;2024-01-15T10:46:04;100252.88;;;1.80;100.00
71774;BME280;59607;52.130;5.430;2024-01-15T10:48:37;100255.06;;;2.07;100.00
71774;BME280;59607;52.130;5.430;2024-01-15T10:51:05;100249.50;;;2.24;100.00
71774;BME280;59607;52.130;5.430;2024-01-15T10:53:45;100255.47;;;2.24;100.00
71774;BME280;59607;52.130;5.430;2024-01-15T10:56:18;100258.16;;;2.34;100.00
71774;BME280;59607;52.130;5.430;2024-01-15T10:58:45;100273.47;;;2.58;100.00
71774;BME280;59607;52.130;5.430;2024-01-15T11:01:16;100273.41;;;2.70;100.00
71774;BME280;59607;52.130;5.430;2024-01-15T11:03:45;100279.34;;;2.61;100.00
71774;BME280;59607;52.130;5.430;2024-01-15T11:06:19;100269.88;;;2.71;100.00
71774;BME280;59607;52.130;5.430;2024-01-15T11:08:49;100280.06;;;2.84;100.00
71774;BME280;59607;52.130;5.430;2024-01-15T11:11:26;100284.09;;;2.77;100.00
71774;BME280;59607;52.130;5.430;2024-01-15T11:13:53;100289.91;;;2.69;100.00
71774;BME280;59607;52.130;5.430;2024-01-15T11:16:22;100287.13;;;2.61;100.00
71774;BME280;59607;52.130;5.430;2024-01-15T11:19:13;100291.72;;;2.57;100.00
71774;BME280;59607;52.130;5.430;2024-01-15T11:21:43;100293.59;;;2.55;100.00
71774;BME280;59607;52.130;5.430;2024-01-15T11:24:38;100293.16;;;2.50;100.00
71774;BME280;59607;52.130;5.430;2024-01-15T11:27:16;100293.97;;;2.50;100.00
71774;BME280;59607;52.130;5.430;2024-01-15T11:30:03;100293.28;;;2.48;100.00
71774;BME280;59607;52.130;5.430;2024-01-15T11:32:47;100289.22;;;2.67;100.00
71774;BME280;59607;52.130;5.430;2024-01-15T11:35:20;100284.81;;;2.79;100.00
71774;BME280;59607;52.130;5.430;2024-01-15T11:38:07;100282.28;;;2.89;100.00
71774;BME280;59607;52.130;5.430;2024-01-15T11:40:38;100281.91;;;2.93;100.00
71774;BME280;59607;52.130;5.430;2024-01-15T11:43:06;100284.06;;;2.88;100.00
71774;BME280;59607;52.130;5.430;2024-01-15T11:45:34;100286.13;;;2.94;100.00
71774;BME280;59607;52.130;5.430;2024-01-15T11:48:17;100294.72;;;3.16;100.00
71774;BME280;59607;52.130;5.430;2024-01-15T11:50:50;100284.06;;;3.10;100.00
71774;BME280;59607;52.130;5.430;2024-01-15T11:53:36;100296.56;;;3.04;100.00
71774;BME280;59607;52.130;5.430;2024-01-15T11:56:16;100298.56;;;3.01;100.00
71774;BME280;59607;52.130;5.430;2024-01-15T11:58:43;100295.47;;;3.07;100.00
71774;BME280;59607;52.130;5.430;2024-01-15T12:01:28;100291.13;;;3.07;100.00
71774;BME280;59607;52.130;5.430;2024-01-15T12:04:03;100292.44;;;3.23;100.00
71774;BME280;59607;52.130;5.430;2024-01-15T12:06:33;100292.75;;;3.30;100.00
71774;BME280;59607;52.130;5.430;2024-01-15T12:09:10;100298.81;;;3.40;100.00
71774;BME280;59607;52.130;5.430;2024-01-15T12:11:47;100315.38;;;3.28;100.00
71774;BME280;59607;52.130;5.430;2024-01-15T12:14:24;100322.16;;;3.19;100.00
71774;BME280;59607;52.130;5.430;2024-01-15T12:16:50;100319.25;;;3.12;100.00
71774;BME280;59607;52.130;5.430;2024-01-15T12:19:19;100318.47;;;3.00;100.00
71774;BME280;59607;52.130;5.430;2024-01-15T12:21:57;100337.63;;;2.88;100.00
71774;BME280;59607;52.130;5.430;2024-01-15T12:24:42;100344.69;;;2.86;100.00
71774;BME280;59607;52.130;5.430;2024-01-15T12:27:11;100345.88;;;2.81;100.00
71774;BME280;59607;52.130;5.430;2024-01-15T12:29:38;100337.13;;;2.94;100.00
71774;BME280;59607;52.130;5.430;2024-01-15T12:32:07;100333.09;;;3.01;100.00
71774;BME280;59607;52.130;5.430;2024-01-15T12:34:34;100334.16;;;3.20;100.00
71774;BME280;59607;52.130;5.430;2024-01-15T12:37:02;100344.00;;;3.26;100.00
71774;BME280;59607;52.130;5.430;2024-01-15T12:39:34;100350.97;;;3.26;100.00
71774;BME280;59607;52.130;5.430;2024-01-15T12:42:04;100352.22;;;3.10;100.00
71774;BME280;59607;52.130;5.430;2024-01-15T12:44:34;100377.25;;;3.00;100.00
71774;BME280;59607;52.130;5.430;2024-01-15T12:47:01;100346.50;;;2.74;100.00
71774;BME280;59607;52.130;5.430;2024-01-15T12:49:28;100351.38;;;2.55;100.00
71774;BME280;59607;52.130;5.430;2024-01-15T12:51:57;100343.16;;;2.50;100.00
71774;BME280;59607;52.130;5.430;2024-01-15T12:54:26;100350.94;;;2.50;100.00
71774;BME280;59607;52.130;5.430;2024-01-15T12:56:52;100347.28;;;2.53;100.00
71774;BME280;59607;52.130;5.430;2024-01-15T12:59:19;100352.91;;;2.58;100.00
71774;BME280;59607;52.130;5.430;2024-01-15T13:01:45;100343.03;;;2.52;100.00
71774;BME280;59607;52.130;5.430;2024-01-15T13:04:23;100344.81;;;2.51;100.00
71774;BME280;59607;52.130;5.430;2024-01-15T13:06:58;100342.47;;;2.48;100.00
71774;BME280;59607;52.130;5.430;2024-01-15T13:09:24;100347.44;;;2.40;100.00